Time;durP1;ratioP1;P1;durP2;ratioP2;P2;SDS_P1;SDS_P2;PMS_P1;PMS_P2;Temp;Humidity;BMP_temperature;BMP_pressure;BME280_temperature;BME280_humidity;BME280_pressure;Samples;Min_cycle;Max_cycle;Signal;HPM_P1;HPM_P2
2023/01/11 00:01:05;;;;;;;15.73;7.20;;;;;;;10.41;74.85;98466.75;5073168;28;20169;-89
2023/01/11 00:03:31;;;;;;;13.47;7.03;;;;;;;10.39;75.34;98461.63;5075514;28;20266;-90
2023/01/11 00:05:58;;;;;;;13.70;7.00;;;;;;;10.38;75.45;98462.56;5076923;28;20181;-89
2023/01/11 00:08:27;;;;;;;11.83;5.90;;;;;;;10.46;74.46;98465.53;5076371;28;20193;-89
2023/01/11 00:10:53;;;;;;;14.30;6.60;;;;;;;10.36;74.45;98461.81;5076859;28;20200;-89
2023/01/11 00:13:19;;;;;;;15.47;6.00;;;;;;;10.00;75.72;98456.22;5076548;28;20204;-89
2023/01/11 00:15:45;;;;;;;14.00;6.27;;;;;;;9.94;76.25;98461.81;5076223;28;20211;-89
2023/01/11 00:18:10;;;;;;;17.43;7.47;;;;;;;9.95;76.50;98458.25;5076077;28;20187;-89
2023/01/11 00:20:40;;;;;;;18.50;7.20;;;;;;;9.88;76.87;98456.94;5075172;28;20228;-89
2023/01/11 00:23:06;;;;;;;14.10;6.30;;;;;;;9.89;76.61;98461.25;5076130;28;20173;-89
2023/01/11 00:25:31;;;;;;;23.63;7.10;;;;;;;9.94;76.23;98467.03;5076894;28;20185;-89
2023/01/11 00:27:57;;;;;;;13.50;7.23;;;;;;;10.02;76.65;98467.41;5076579;28;20524;-89
2023/01/11 00:30:22;;;;;;;16.77;8.20;;;;;;;10.03;76.29;98471.72;5075292;28;20223;-89
2023/01/11 00:32:48;;;;;;;19.90;7.37;;;;;;;10.01;75.81;98476.19;5076243;28;20200;-89
2023/01/11 00:35:14;;;;;;;19.10;7.97;;;;;;;10.03;75.90;98476.97;5074922;28;20185;-89
2023/01/11 00:37:39;;;;;;;18.13;7.43;;;;;;;9.98;75.93;98471.16;5074891;28;20189;-89
2023/01/11 00:40:05;;;;;;;14.00;6.93;;;;;;;9.86;76.12;98475.34;5074909;28;20547;-89
2023/01/11 00:48:00;;;;;;;14.50;6.50;;;;;;;9.93;76.58;98480.22;5076561;28;20188;-89
2023/01/11 00:50:29;;;;;;;15.83;5.60;;;;;;;9.99;75.63;98482.47;5075579;28;20179;-89
2023/01/11 00:52:55;;;;;;;13.00;5.80;;;;;;;10.01;75.86;98484.03;5075791;28;20204;-89
2023/01/11 00:55:20;;;;;;;9.93;5.33;;;;;;;10.03;75.96;98497.91;5076108;28;20187;-89
2023/01/11 00:57:46;;;;;;;14.57;6.10;;;;;;;10.14;75.56;98498.09;5074774;28;20272;-89
2023/01/11 01:00:12;;;;;;;10.87;5.37;;;;;;;10.20;75.26;98500.38;5074852;28;20205;-89
2023/01/11 01:02:37;;;;;;;10.50;5.07;;;;;;;10.19;75.53;98503.94;5074468;28;20172;-89
2023/01/11 01:05:03;;;;;;;12.83;5.20;;;;;;;10.17;75.76;98500.56;5074434;28;20181;-89
2023/01/11 01:07:28;;;;;;;10.20;4.57;;;;;;;10.29;74.92;98498.97;5075434;28;20177;-90
2023/01/11 01:09:54;;;;;;;13.10;4.90;;;;;;;10.27;75.10;98506.91;5075317;28;20177;-89
2023/01/11 01:15:20;;;;;;;8.93;3.80;;;;;;;10.32;75.21;98507.50;5092906;28;20234;-89
2023/01/11 01:17:46;;;;;;;9.17;4.30;;;;;;;10.33;74.97;98509.16;5078404;28;20205;-90
2023/01/11 01:20:12;;;;;;;12.90;5.03;;;;;;;10.33;75.00;98509.16;5074068;28;20276;-89
2023/01/11 01:22:37;;;;;;;9.93;4.73;;;;;;;10.39;75.24;98513.19;5074660;28;20192;-89
2023/01/11 01:25:03;;;;;;;8.50;4.73;;;;;;;10.46;74.76;98515.31;5075060;28;20549;-90
2023/01/11 01:27:29;;;;;;;9.13;4.13;;;;;;;10.42;74.80;98516.47;5074211;28;20634;-90
2023/01/11 01:29:54;;;;;;;9.03;3.60;;;;;;;10.49;73.72;98517.75;5074762;28;20188;-90
2023/01/11 01:32:20;;;;;;;5.80;2.80;;;;;;;10.44;73.31;98526.84;5073799;28;20303;-89
2023/01/11 01:34:45;;;;;;;9.30;3.20;;;;;;;10.43;73.00;98519.91;5074771;28;20169;-89
2023/01/11 01:37:11;;;;;;;7.23;3.60;;;;;;;10.37;73.25;98523.75;5073805;28;20551;-90
2023/01/11 01:39:37;;;;;;;7.70;3.33;;;;;;;10.45;73.51;98520.66;5073651;28;20192;-90
2023/01/11 01:42:04;;;;;;;6.07;2.90;;;;;;;10.49;73.39;98520.38;5074947;28;20180;-90
2023/01/11 01:44:51;;;;;;;8.93;3.23;;;;;;;10.48;73.31;98521.31;5073920;28;20179;-90
2023/01/11 01:47:22;;;;;;;6.87;3.23;;;;;;;10.50;73.65;98521.22;5073772;28;20275;-90
2023/01/11 01:49:48;;;;;;;6.10;3.20;;;;;;;10.50;73.34;98518.59;5074130;28;20525;-90
2023/01/11 01:52:13;;;;;;;7.97;3.50;;;;;;;10.52;73.34;98524.59;5073669;28;20197;-90
2023/01/11 01:54:44;;;;;;;7.47;3.27;;;;;;;10.48;73.31;98526.53;5074408;28;20185;-89
2023/01/11 01:57:14;;;;;;;8.57;2.97;;;;;;;10.49;73.23;98523.00;5074923;28;20178;-90
2023/01/11 01:59:40;;;;;;;6.43;2.87;;;;;;;10.56;72.89;98528.69;5074158;28;20169;-90
2023/01/11 02:02:06;;;;;;;5.60;2.60;;;;;;;10.57;72.82;98522.50;5074209;28;20251;-89
2023/01/11 02:04:37;;;;;;;5.07;2.47;;;;;;;10.62;72.54;98523.06;5074202;28;20221;-90
2023/01/11 02:07:16;;;;;;;8.80;3.27;;;;;;;10.59;72.73;98525.03;5074435;28;20171;-90
2023/01/11 02:10:03;;;;;;;7.20;3.30;;;;;;;10.51;73.11;98525.50;5073319;28;20589;-90
2023/01/11 02:12:33;;;;;;;4.13;2.50;;;;;;;10.48;73.45;98526.53;5073952;28;20200;-89
2023/01/11 02:15:00;;;;;;;7.97;2.47;;;;;;;10.47;73.21;98522.25;5073950;28;20177;-90
2023/01/11 02:17:25;;;;;;;6.00;2.87;;;;;;;10.45;73.46;98525.91;5074192;28;20176;-90
2023/01/11 02:19:51;;;;;;;4.37;2.07;;;;;;;10.42;73.53;98526.09;5074179;28;20185;-90
2023/01/11 02:22:54;;;;;;;5.83;2.47;;;;;;;10.37;73.46;98528.16;5072850;28;20173;-90
2023/01/11 02:25:40;;;;;;;4.40;1.87;;;;;;;10.39;73.67;98532.38;5073743;28;20177;-90
2023/01/11 02:28:16;;;;;;;4.53;2.17;;;;;;;10.41;73.44;98533.09;5073685;28;20176;-90
2023/01/11 02:31:05;;;;;;;3.83;1.77;;;;;;;10.49;73.24;98537.88;5073967;28;20227;-90
2023/01/11 02:33:49;;;;;;;2.73;1.47;;;;;;;10.52;72.91;98531.59;5073975;28;20169;-90
2023/01/11 02:36:49;;;;;;;3.77;1.17;;;;;;;10.44;72.96;98534.69;5073607;28;20181;-90
2023/01/11 02:39:17;;;;;;;4.40;1.70;;;;;;;10.42;72.76;98533.94;5072447;28;20270;-90
2023/01/11 02:45:02;;;;;;;6.63;1.30;;;;;;;10.52;72.30;98527.22;5073579;28;20188;-90
2023/01/11 02:47:58;;;;;;;1.80;0.90;;;;;;;10.47;71.47;98529.28;5072851;28;20260;-90
2023/01/11 02:50:37;;;;;;;2.00;1.00;;;;;;;10.47;71.00;98521.41;5073962;28;20184;-90
2023/01/11 02:53:12;;;;;;;2.43;1.03;;;;;;;10.49;70.71;98527.38;5073675;28;20189;-89
2023/01/11 02:55:42;;;;;;;4.20;1.03;;;;;;;10.44;70.64;98514.59;5072450;28;20176;-90
2023/01/11 02:58:11;;;;;;;2.73;1.07;;;;;;;10.42;69.73;98516.47;5072441;28;20204;-90
2023/01/11 03:00:38;;;;;;;1.90;0.90;;;;;;;10.40;70.14;98518.31;5072353;28;20203;-90
2023/01/11 03:03:20;;;;;;;2.30;0.90;;;;;;;10.31;70.33;98525.91;5073261;28;20165;-90
2023/01/11 03:06:07;;;;;;;2.83;1.07;;;;;;;10.31;70.32;98524.13;5073469;28;20626;-89
2023/01/11 03:08:40;;;;;;;2.10;0.87;;;;;;;10.32;70.56;98530.22;5072218;28;20235;-90
2023/01/11 03:11:13;;;;;;;3.03;1.17;;;;;;;10.28;70.67;98534.78;5073039;28;20268;-91
2023/01/11 03:13:44;;;;;;;2.53;1.10;;;;;;;10.31;70.87;98533.75;5073421;28;20236;-90
2023/01/11 03:16:46;;;;;;;1.93;0.97;;;;;;;10.31;71.05;98532.00;5073665;28;20230;-91
2023/01/11 03:19:14;;;;;;;2.37;1.20;;;;;;;10.35;70.86;98538.72;5073389;28;20181;-90
2023/01/11 03:21:43;;;;;;;2.90;1.07;;;;;;;10.37;70.73;98543.88;5073369;28;20193;-90
2023/01/11 03:24:30;;;;;;;4.27;1.70;;;;;;;10.36;70.39;98548.25;5073064;28;20260;-91
2023/01/11 03:27:32;;;;;;;3.07;1.20;;;;;;;10.31;70.74;98545.09;5073292;28;20176;-90
2023/01/11 03:30:02;;;;;;;4.27;1.83;;;;;;;10.31;70.44;98555.56;5068322;28;20548;-90
2023/01/11 03:32:38;;;;;;;3.97;1.60;;;;;;;10.31;69.82;98563.41;5072891;28;20195;-90
2023/01/11 03:35:26;;;;;;;2.70;1.50;;;;;;;10.26;70.28;98568.09;5073242;28;20161;-90
2023/01/11 03:38:03;;;;;;;2.73;1.03;;;;;;;10.26;70.29;98557.63;5074195;28;20196;-90
2023/01/11 03:40:33;;;;;;;2.53;1.17;;;;;;;10.28;69.80;98560.97;5077304;28;20177;-90
2023/01/11 03:43:12;;;;;;;4.47;1.47;;;;;;;10.18;70.06;98552.00;5076511;28;20512;-90
2023/01/11 03:45:56;;;;;;;4.40;1.80;;;;;;;10.13;69.34;98564.53;5077150;28;20160;-90
2023/01/11 03:49:08;;;;;;;3.57;1.50;;;;;;;10.04;70.05;98562.41;5077389;28;20157;-90
2023/01/11 03:51:41;;;;;;;2.77;1.27;;;;;;;10.05;69.87;98579.81;5065148;28;20670;-90
2023/01/11 03:54:10;;;;;;;3.40;1.60;;;;;;;10.02;70.18;98582.63;5077055;28;20176;-90
2023/01/11 03:56:43;;;;;;;3.10;1.40;;;;;;;9.98;70.72;98590.75;5076685;28;20247;-90
2023/01/11 03:59:09;;;;;;;5.10;1.90;;;;;;;9.98;71.36;98588.97;5076913;28;20176;-90
2023/01/11 04:01:36;;;;;;;10.17;1.57;;;;;;;9.99;71.43;98585.41;5075640;28;20173;-91
2023/01/11 04:04:01;;;;;;;3.40;1.63;;;;;;;9.98;71.75;98594.22;5077008;28;20204;-91
2023/01/11 04:06:27;;;;;;;7.50;1.87;;;;;;;10.07;71.69;98587.56;5075573;28;20195;-90
2023/01/11 04:08:53;;;;;;;3.00;1.60;;;;;;;10.09;71.54;98586.53;5075424;28;20268;-90
2023/01/11 04:11:19;;;;;;;2.80;1.63;;;;;;;10.09;71.41;98594.41;5076276;28;20256;-91
2023/01/11 04:13:44;;;;;;;2.67;1.50;;;;;;;10.03;71.77;98584.31;5076268;28;20259;-91
2023/01/11 04:16:10;;;;;;;2.20;1.07;;;;;;;10.02;71.74;98587.00;5075310;28;20687;-91
2023/01/11 04:18:35;;;;;;;7.93;1.50;;;;;;;10.00;71.95;98594.97;5075196;28;20664;-91
2023/01/11 04:21:01;;;;;;;3.50;1.93;;;;;;;10.00;71.99;98608.06;5076187;28;20678;-90
2023/01/11 04:23:26;;;;;;;4.77;1.60;;;;;;;9.99;71.56;98603.72;5076457;28;20169;-90
2023/01/11 04:25:52;;;;;;;3.67;1.57;;;;;;;10.08;71.06;98594.50;5075273;28;20181;-91
2023/01/11 04:28:17;;;;;;;6.57;2.90;;;;;;;10.04;71.09;98599.06;5076259;28;20181;-91
2023/01/11 04:30:43;;;;;;;4.13;1.37;;;;;;;10.01;71.75;98599.25;5076289;28;20187;-91
2023/01/11 04:33:11;;;;;;;2.37;1.17;;;;;;;10.02;71.70;98621.88;5074955;28;20204;-90
2023/01/11 04:35:37;;;;;;;2.23;1.10;;;;;;;9.88;71.61;98624.44;5075952;28;20169;-91
2023/01/11 04:38:02;;;;;;;2.37;1.27;;;;;;;9.85;71.55;98625.47;5075716;28;20550;-90
2023/01/11 04:40:28;;;;;;;2.53;1.33;;;;;;;9.83;72.03;98631.72;5076101;28;20181;-90
2023/01/11 04:42:53;;;;;;;4.33;1.70;;;;;;;9.74;71.60;98642.75;5076315;28;20228;-90
2023/01/11 04:45:19;;;;;;;2.87;1.70;;;;;;;9.70;72.00;98646.44;5076350;28;20234;-90
2023/01/11 04:47:44;;;;;;;3.57;1.70;;;;;;;9.69;72.18;98652.63;5075756;28;20237;-91
2023/01/11 04:50:11;;;;;;;5.40;3.10;;;;;;;9.68;72.59;98653.53;5076051;28;20238;-91
2023/01/11 04:52:36;;;;;;;14.30;5.70;;;;;;;9.64;73.33;98650.25;5075573;28;20669;-90
2023/01/11 04:55:02;;;;;;;14.07;5.07;;;;;;;9.74;72.79;98655.81;5075888;28;20173;-90
2023/01/11 04:57:27;;;;;;;7.33;2.53;;;;;;;9.81;72.84;98650.16;5075478;28;20177;-90
2023/01/11 04:59:53;;;;;;;8.40;3.37;;;;;;;9.86;72.50;98652.50;5075645;28;20184;-91
2023/01/11 05:02:18;;;;;;;9.13;3.17;;;;;;;9.85;72.59;98661.31;5075409;28;20177;-90
2023/01/11 05:04:43;;;;;;;10.00;4.87;;;;;;;9.83;72.56;98653.50;5074499;28;20284;-90
2023/01/11 05:07:10;;;;;;;9.27;4.30;;;;;;;9.92;72.61;98654.78;5074697;28;20543;-90
2023/01/11 05:09:35;;;;;;;9.83;4.67;;;;;;;9.88;72.45;98651.47;5075572;28;20188;-90
2023/01/11 05:12:01;;;;;;;8.97;4.77;;;;;;;9.86;72.59;98670.81;5075202;28;20253;-90
2023/01/11 05:14:26;;;;;;;8.33;4.60;;;;;;;9.94;72.19;98671.22;5074539;28;20188;-90
2023/01/11 05:16:52;;;;;;;6.93;3.97;;;;;;;9.87;72.36;98678.59;5075420;28;20169;-90
2023/01/11 05:19:17;;;;;;;8.97;4.20;;;;;;;9.80;72.88;98679.03;5075690;28;20230;-90
2023/01/11 05:21:43;;;;;;;8.17;3.87;;;;;;;9.88;72.74;98682.03;5075041;28;20656;-91
2023/01/11 05:24:13;;;;;;;7.17;3.53;;;;;;;9.86;73.09;98684.75;5075282;28;20686;-90
2023/01/11 05:26:41;;;;;;;8.53;3.83;;;;;;;9.87;73.54;98690.84;5074843;28;20181;-90
2023/01/11 05:29:09;;;;;;;8.27;2.87;;;;;;;9.93;73.08;98693.13;5074221;28;20181;-90
2023/01/11 05:31:36;;;;;;;8.93;3.43;;;;;;;9.97;73.18;98684.16;5074100;28;20666;-89
2023/01/11 05:34:03;;;;;;;7.43;3.37;;;;;;;9.98;73.13;98695.47;5073858;28;20189;-90
2023/01/11 05:36:28;;;;;;;6.67;3.27;;;;;;;9.90;72.98;98685.44;5074075;28;20650;-90
2023/01/11 05:38:55;;;;;;;8.53;3.63;;;;;;;9.87;73.16;98681.22;5073831;28;20196;-90
2023/01/11 05:41:23;;;;;;;7.97;4.00;;;;;;;9.97;72.58;98678.06;5073991;28;20240;-90
2023/01/11 05:46:36;;;;;;;5.00;2.57;;;;;;;9.93;72.37;98661.72;5075460;28;20278;-91
2023/01/11 05:49:03;;;;;;;4.67;2.30;;;;;;;9.88;72.67;98675.03;5074600;28;20185;-90
2023/01/11 05:51:29;;;;;;;4.40;2.03;;;;;;;9.90;72.63;98678.41;5073412;28;20177;-90
2023/01/11 05:54:06;;;;;;;4.77;2.00;;;;;;;9.93;72.54;98674.78;5074011;28;20599;-90
2023/01/11 05:56:31;;;;;;;7.17;3.47;;;;;;;10.00;72.12;98681.34;5074673;28;20600;-90
2023/01/11 05:58:57;;;;;;;5.83;2.40;;;;;;;10.00;71.17;98688.34;5073636;28;20199;-90
2023/01/11 06:01:24;;;;;;;5.93;2.30;;;;;;;9.99;70.88;98692.75;5072956;28;20182;-90
2023/01/11 06:03:50;;;;;;;5.10;1.67;;;;;;;9.94;70.56;98697.41;5073296;28;20177;-90
2023/01/11 06:06:17;;;;;;;10.30;4.53;;;;;;;9.97;70.11;98699.84;5073754;28;20595;-90
2023/01/11 06:08:43;;;;;;;7.77;3.47;;;;;;;9.97;69.69;98699.00;5073415;28;20177;-90
2023/01/11 06:11:08;;;;;;;5.40;2.97;;;;;;;9.98;69.32;98698.94;5073346;28;20191;-90
2023/01/11 06:13:34;;;;;;;5.00;1.87;;;;;;;9.93;68.84;98706.22;5073323;28;20215;-90
2023/01/11 06:16:09;;;;;;;4.80;1.70;;;;;;;9.93;69.40;98708.81;5074260;28;20514;-90
2023/01/11 06:18:36;;;;;;;4.40;1.90;;;;;;;9.92;69.22;98714.13;5074231;28;20161;-89
2023/01/11 06:21:03;;;;;;;4.13;1.47;;;;;;;9.99;69.13;98718.94;5074081;28;20180;-90
2023/01/11 06:23:30;;;;;;;5.87;1.90;;;;;;;10.02;68.87;98724.00;5074130;28;20307;-90
2023/01/11 06:25:56;;;;;;;5.07;1.40;;;;;;;10.01;69.14;98724.91;5073778;28;20172;-90
2023/01/11 06:28:21;;;;;;;4.97;1.90;;;;;;;10.03;69.08;98723.06;5073825;28;20247;-90
2023/01/11 06:30:52;;;;;;;4.80;1.73;;;;;;;10.02;69.61;98726.63;5073990;28;20619;-90
2023/01/11 06:33:17;;;;;;;7.43;2.77;;;;;;;10.03;70.11;98733.56;5073580;28;20201;-89
2023/01/11 06:35:43;;;;;;;7.13;2.53;;;;;;;10.11;70.88;98736.59;5073925;28;20683;-90
2023/01/11 06:38:10;;;;;;;6.67;2.80;;;;;;;10.15;71.12;98738.13;5073744;28;20188;-89
2023/01/11 06:40:37;;;;;;;8.33;3.00;;;;;;;10.17;72.10;98744.09;5072577;28;20189;-90
2023/01/11 06:43:03;;;;;;;4.77;1.57;;;;;;;10.23;72.16;98740.28;5073832;28;20652;-90
2023/01/11 06:45:29;;;;;;;5.50;1.97;;;;;;;10.32;72.24;98740.63;5072802;28;20231;-89
2023/01/11 06:47:55;;;;;;;6.00;2.10;;;;;;;10.33;72.01;98741.44;5073356;28;20183;-90
2023/01/11 06:50:20;;;;;;;4.80;2.03;;;;;;;10.40;71.71;98742.78;5073382;28;20541;-90
2023/01/11 06:52:57;;;;;;;3.60;1.43;;;;;;;10.42;71.73;98746.16;5072504;28;20662;-90
2023/01/11 06:55:25;;;;;;;5.63;1.33;;;;;;;10.45;71.14;98752.03;5072246;28;20185;-91
2023/01/11 06:57:50;;;;;;;6.83;2.03;;;;;;;10.53;71.12;98749.00;5072193;28;20181;-90
2023/01/11 07:00:17;;;;;;;4.50;1.73;;;;;;;10.55;70.74;98746.28;5072312;28;20273;-91
2023/01/11 07:02:44;;;;;;;6.93;1.70;;;;;;;10.59;69.86;98738.16;5073262;28;20173;-90
2023/01/11 07:05:09;;;;;;;3.43;1.90;;;;;;;10.61;69.12;98738.06;5073523;28;20165;-90
2023/01/11 07:07:36;;;;;;;4.97;1.87;;;;;;;10.51;68.00;98739.56;5073535;28;20188;-90
2023/01/11 07:10:01;;;;;;;6.33;1.57;;;;;;;10.50;68.44;98749.19;5073499;28;20188;-89
2023/01/11 07:12:27;;;;;;;1.60;0.83;;;;;;;10.48;68.90;98751.06;5072080;28;20686;-90
2023/01/11 07:14:52;;;;;;;4.20;1.93;;;;;;;10.36;69.25;98759.59;5072238;28;20248;-89
2023/01/11 07:17:18;;;;;;;3.90;1.97;;;;;;;10.36;68.97;98757.00;5073100;28;20514;-90
2023/01/11 07:19:43;;;;;;;2.33;1.07;;;;;;;10.40;69.17;98755.91;5073111;28;20616;-91
2023/01/11 07:22:08;;;;;;;2.57;1.03;;;;;;;10.40;69.22;98754.09;5073372;28;20203;-91
2023/01/11 07:24:34;;;;;;;4.13;2.00;;;;;;;10.38;69.60;98762.97;5073490;28;20184;-91
2023/01/11 07:27:01;;;;;;;2.03;0.80;;;;;;;10.39;69.71;98764.69;5072040;28;20189;-91
2023/01/11 07:29:26;;;;;;;3.23;1.10;;;;;;;10.47;69.84;98765.94;5073111;28;20254;-91
2023/01/11 07:31:52;;;;;;;4.57;1.70;;;;;;;10.58;69.50;98772.31;5072990;28;20658;-91
2023/01/11 07:34:17;;;;;;;3.20;1.37;;;;;;;10.62;69.92;98777.28;5073010;28;20177;-91
2023/01/11 07:36:43;;;;;;;2.70;1.20;;;;;;;10.73;69.47;98776.66;5072268;28;20180;-91
2023/01/11 07:39:08;;;;;;;2.83;1.10;;;;;;;10.80;69.00;98778.81;5073824;28;20193;-91
2023/01/11 07:44:18;;;;;;;3.30;1.73;;;;;;;10.20;67.27;98793.69;5073471;28;20275;-91
2023/01/11 07:46:43;;;;;;;2.73;1.20;;;;;;;10.29;67.07;98797.56;5071953;28;20173;-92
2023/01/11 07:49:09;;;;;;;3.57;1.63;;;;;;;10.35;67.62;98798.06;5071880;28;20203;-91
2023/01/11 07:51:35;;;;;;;3.47;1.50;;;;;;;10.39;68.75;98804.81;5072218;28;20234;-91
2023/01/11 07:54:02;;;;;;;6.47;2.10;;;;;;;10.15;68.38;98806.19;5072757;28;20533;-91
2023/01/11 07:56:28;;;;;;;2.50;1.53;;;;;;;10.34;68.35;98814.72;5072752;28;20174;-91
2023/01/11 07:58:54;;;;;;;4.23;1.73;;;;;;;10.37;68.67;98811.09;5071751;28;20264;-91
2023/01/11 08:01:20;;;;;;;2.93;1.40;;;;;;;10.36;67.89;98820.72;5072674;28;20516;-91
2023/01/11 08:03:45;;;;;;;3.77;2.10;;;;;;;10.47;68.53;98823.56;5072898;28;20555;-92
2023/01/11 08:06:13;;;;;;;2.77;1.60;;;;;;;10.55;67.44;98827.53;5071783;28;20173;-91
2023/01/11 08:08:39;;;;;;;3.47;1.80;;;;;;;10.44;67.22;98836.84;5072584;28;20619;-91
2023/01/11 08:16:32;;;;;;;3.67;1.97;;;;;;;10.61;67.75;98838.50;5072543;28;20176;-92
2023/01/11 08:18:58;;;;;;;4.30;2.00;;;;;;;10.61;66.37;98841.13;5072568;28;20538;-91
2023/01/11 08:21:23;;;;;;;3.63;1.60;;;;;;;10.53;66.32;98856.44;5071861;28;20623;-92
2023/01/11 08:23:52;;;;;;;2.73;1.37;;;;;;;10.58;67.29;98856.19;5072972;28;20188;-91
2023/01/11 08:26:17;;;;;;;2.87;1.30;;;;;;;10.57;66.27;98854.47;5076091;28;20256;-91
2023/01/11 08:28:43;;;;;;;2.80;1.67;;;;;;;10.37;67.48;98859.09;5076151;28;20223;-91
2023/01/11 08:31:09;;;;;;;3.43;1.83;;;;;;;10.21;66.94;98853.00;5075993;28;20583;-92
2023/01/11 08:33:35;;;;;;;4.40;1.73;;;;;;;10.22;66.69;98862.53;5075098;28;20228;-91
2023/01/11 08:36:05;;;;;;;2.37;1.47;;;;;;;10.25;67.28;98865.00;5075922;28;20170;-92
2023/01/11 08:38:31;;;;;;;3.77;1.60;;;;;;;10.31;66.74;98875.13;5074839;28;20269;-93
2023/01/11 08:40:56;;;;;;;3.50;1.63;;;;;;;10.16;65.25;98875.16;5075922;28;20626;-92
2023/01/11 08:43:22;;;;;;;5.73;1.83;;;;;;;10.00;66.16;98885.56;5075044;28;20177;-92
2023/01/11 08:45:49;;;;;;;3.50;1.63;;;;;;;10.28;66.08;98883.16;5075883;28;20177;-92
2023/01/11 08:48:15;;;;;;;3.13;1.30;;;;;;;10.27;66.77;98886.69;5074950;28;20192;-92
2023/01/11 08:50:41;;;;;;;3.27;1.57;;;;;;;10.19;65.81;98886.31;5076114;28;20167;-92
2023/01/11 08:53:06;;;;;;;2.20;1.20;;;;;;;10.07;65.78;98880.84;5074692;28;20200;-92
2023/01/11 08:55:32;;;;;;;3.77;1.57;;;;;;;9.80;66.16;98877.97;5074834;28;20194;-92
2023/01/11 08:57:57;;;;;;;4.10;1.83;;;;;;;9.74;67.55;98888.75;5074710;28;20180;-92
2023/01/11 09:00:22;;;;;;;5.63;2.47;;;;;;;9.69;67.78;98886.38;5075627;28;20626;-92
2023/01/11 09:02:48;;;;;;;5.57;1.63;;;;;;;9.76;67.85;98877.28;5076218;28;20169;-92
2023/01/11 09:05:14;;;;;;;3.43;1.40;;;;;;;9.37;68.23;98866.28;5074708;28;20279;-92
2023/01/11 09:07:39;;;;;;;2.83;1.23;;;;;;;9.42;67.75;98861.66;5074748;28;20177;-92
2023/01/11 09:10:05;;;;;;;2.20;1.00;;;;;;;9.44;68.22;98865.03;5074530;28;20243;-92
2023/01/11 09:12:31;;;;;;;3.13;1.50;;;;;;;9.28;68.22;98869.34;5074379;28;20197;-93
2023/01/11 09:14:57;;;;;;;6.37;1.90;;;;;;;9.23;68.61;98869.59;5074541;28;20183;-92
2023/01/11 09:17:23;;;;;;;4.53;1.70;;;;;;;9.32;69.35;98876.13;5075722;28;20196;-92
2023/01/11 09:19:48;;;;;;;3.50;1.73;;;;;;;9.54;68.46;98870.66;5074391;28;20181;-92
2023/01/11 09:22:14;;;;;;;5.07;1.97;;;;;;;9.67;68.09;98874.31;5074267;28;20188;-92
2023/01/11 09:24:40;;;;;;;3.87;1.93;;;;;;;9.52;68.97;98877.69;5075483;28;20173;-92
2023/01/11 09:27:05;;;;;;;5.27;2.10;;;;;;;9.34;68.98;98873.44;5075261;28;20532;-93
2023/01/11 09:29:31;;;;;;;4.43;2.37;;;;;;;9.40;69.21;98875.75;5075739;28;20239;-91
2023/01/11 09:31:56;;;;;;;6.00;2.27;;;;;;;9.48;69.53;98865.72;5075120;28;20193;-93
2023/01/11 09:34:24;;;;;;;6.67;1.80;;;;;;;9.35;68.89;98865.53;5074786;28;20259;-93
2023/01/11 09:36:49;;;;;;;4.00;2.43;;;;;;;9.38;70.27;98864.53;5073584;28;20592;-93
2023/01/11 09:39:19;;;;;;;4.63;2.13;;;;;;;9.46;69.27;98867.59;5073982;28;20284;-93
2023/01/11 09:41:59;;;;;;;3.73;1.97;;;;;;;9.28;69.62;98872.81;5073947;28;20180;-92
2023/01/11 09:44:26;;;;;;;4.53;2.40;;;;;;;9.31;70.14;98860.50;5075666;28;20193;-93
2023/01/11 09:46:59;;;;;;;7.20;2.43;;;;;;;9.20;70.06;98863.69;5074866;28;20169;-92
2023/01/11 09:49:30;;;;;;;4.97;2.03;;;;;;;9.25;69.81;98864.28;5073882;28;20165;-92
2023/01/11 09:52:09;;;;;;;6.00;2.33;;;;;;;9.51;69.49;98865.56;5074470;28;20193;-93
2023/01/11 09:54:35;;;;;;;6.17;3.17;;;;;;;9.51;69.53;98878.66;5073862;28;20165;-93
2023/01/11 09:57:17;;;;;;;5.17;2.87;;;;;;;9.61;70.14;98872.00;5075244;28;20173;-93
2023/01/11 10:00:08;;;;;;;5.40;2.50;;;;;;;9.59;69.97;98868.63;5073754;28;20173;-93
2023/01/11 10:03:03;;;;;;;3.23;2.07;;;;;;;9.44;70.15;98870.25;5074561;28;20185;-92
2023/01/11 10:05:50;;;;;;;4.60;1.80;;;;;;;9.33;69.71;98864.72;5074115;28;20227;-93
2023/01/11 10:08:49;;;;;;;4.27;2.13;;;;;;;9.42;70.61;98845.97;5075324;28;20580;-93
2023/01/11 10:11:29;;;;;;;2.43;1.37;;;;;;;9.12;70.69;98856.22;5073545;28;20183;-94
2023/01/11 10:14:29;;;;;;;4.17;2.13;;;;;;;9.24;71.30;98853.00;5073664;28;20184;-93
2023/01/11 10:17:01;;;;;;;3.57;1.80;;;;;;;9.33;70.65;98848.22;5073546;28;20189;-93
2023/01/11 10:19:38;;;;;;;7.47;1.80;;;;;;;9.49;70.49;98847.31;5073579;28;20177;-94
2023/01/11 10:22:16;;;;;;;6.10;3.03;;;;;;;9.56;70.35;98851.31;5074524;28;20168;-93
2023/01/11 10:24:47;;;;;;;4.07;2.20;;;;;;;9.68;69.80;98847.19;5073433;28;20176;-92
2023/01/11 10:27:39;;;;;;;3.93;1.80;;;;;;;9.72;69.84;98848.72;5074880;28;20173;-92
2023/01/11 10:36:13;;;;;;;5.80;2.43;;;;;;;9.78;69.67;98849.22;5073995;28;20235;-92
2023/01/11 10:39:16;;;;;;;3.80;2.00;;;;;;;9.72;70.02;98853.97;5073992;28;20189;-93
2023/01/11 10:41:56;;;;;;;3.50;1.40;;;;;;;9.72;70.35;98854.78;5073037;28;20192;-93
2023/01/11 10:44:53;;;;;;;3.40;1.90;;;;;;;9.80;70.06;98857.03;5074430;28;20161;-92
2023/01/11 10:47:26;;;;;;;3.33;1.73;;;;;;;9.99;69.72;98849.00;5074172;28;20165;-93
2023/01/11 10:50:03;;;;;;;5.33;2.00;;;;;;;10.09;69.68;98848.41;5074029;28;20218;-91
2023/01/11 10:52:31;;;;;;;3.03;1.80;;;;;;;10.09;70.45;98851.03;5073977;28;20212;-93
2023/01/11 10:54:59;;;;;;;3.33;1.70;;;;;;;10.21;70.33;98847.78;5072837;28;20531;-93
2023/01/11 10:57:40;;;;;;;3.70;1.43;;;;;;;10.26;70.20;98853.59;5073908;28;20262;-92
2023/01/11 11:00:09;;;;;;;4.03;1.60;;;;;;;10.20;70.77;98861.78;5072970;28;20170;-94
2023/01/11 11:02:47;;;;;;;3.87;1.53;;;;;;;10.35;71.18;98860.94;5072653;28;20176;-93
2023/01/11 11:05:32;;;;;;;2.90;1.87;;;;;;;10.25;70.66;98859.75;5072887;28;20717;-92
2023/01/11 11:08:00;;;;;;;5.77;2.30;;;;;;;10.22;71.40;98859.91;5073956;28;20248;-92
2023/01/11 11:10:41;;;;;;;3.53;1.90;;;;;;;10.21;72.02;98852.16;5073504;28;20177;-93
2023/01/11 11:13:30;;;;;;;4.97;2.13;;;;;;;10.29;71.89;98856.06;5072424;28;20197;-93
2023/01/11 11:16:05;;;;;;;6.20;2.07;;;;;;;10.45;72.19;98854.22;5072707;28;20234;-93
2023/01/11 11:18:30;;;;;;;4.47;1.80;;;;;;;10.31;72.89;98856.81;5073795;28;20250;-93
2023/01/11 11:21:02;;;;;;;5.70;2.00;;;;;;;10.24;72.62;98863.31;5072929;28;20226;-93
2023/01/11 11:23:28;;;;;;;5.13;2.37;;;;;;;10.26;72.32;98860.59;5072721;28;20600;-93
2023/01/11 11:25:59;;;;;;;5.20;2.63;;;;;;;10.25;72.43;98867.63;5073454;28;20234;-93
2023/01/11 11:28:32;;;;;;;4.23;1.90;;;;;;;10.30;72.34;98867.34;5072780;28;20268;-94
2023/01/11 11:31:02;;;;;;;5.77;2.30;;;;;;;10.20;72.56;98861.78;5073721;28;20180;-93
2023/01/11 11:33:34;;;;;;;3.47;1.83;;;;;;;10.13;73.10;98860.44;5073865;28;20193;-93
2023/01/11 11:36:08;;;;;;;5.43;1.60;;;;;;;10.05;73.61;98867.84;5073452;28;20191;-94
2023/01/11 11:38:37;;;;;;;4.57;2.17;;;;;;;10.01;73.90;98866.31;5073467;28;20192;-94
2023/01/11 11:41:16;;;;;;;5.20;2.13;;;;;;;10.05;74.41;98859.97;5072843;28;20534;-94
2023/01/11 11:43:49;;;;;;;5.93;2.67;;;;;;;10.17;74.59;98861.94;5073419;28;20276;-93
2023/01/11 11:46:14;;;;;;;7.50;2.67;;;;;;;10.10;74.49;98860.56;5072502;28;20186;-93
2023/01/11 11:48:41;;;;;;;6.13;2.83;;;;;;;10.12;74.75;98852.63;5072419;28;20607;-93
2023/01/11 11:51:22;;;;;;;6.40;2.13;;;;;;;10.23;74.70;98850.28;5073668;28;20177;-93
2023/01/11 11:53:55;;;;;;;6.70;3.60;;;;;;;10.21;74.57;98852.16;5072244;28;20185;-93
2023/01/11 11:56:20;;;;;;;6.83;3.33;;;;;;;10.17;74.86;98859.34;5072576;28;20212;-91
2023/01/11 11:58:49;;;;;;;8.03;3.93;;;;;;;10.24;75.21;98852.84;5073950;28;20177;-91
2023/01/11 12:01:31;;;;;;;9.97;3.93;;;;;;;10.30;75.22;98862.97;5077037;28;20204;-92
2023/01/11 12:04:03;;;;;;;9.30;4.57;;;;;;;10.25;75.28;98862.38;5076906;28;20256;-91
2023/01/11 12:06:30;;;;;;;7.23;3.43;;;;;;;10.26;75.65;98861.47;5076725;28;20631;-91
2023/01/11 12:08:59;;;;;;;7.70;2.80;;;;;;;10.36;75.83;98864.41;5076396;28;20523;-91
2023/01/11 12:11:37;;;;;;;4.40;2.50;;;;;;;10.32;75.89;98861.13;5076210;28;20606;-91
2023/01/11 12:14:26;;;;;;;6.50;3.43;;;;;;;10.23;76.27;98858.16;5076811;28;20199;-90
2023/01/11 12:16:52;;;;;;;7.03;3.43;;;;;;;10.22;76.63;98865.16;5076677;28;20177;-91